createdAt,value
2023-02-08T00:00:26.559Z,74882.34
2023-02-08T00:00:59.895Z,74878.34
2023-02-08T00:01:34.702Z,74882.34
2023-02-08T00:02:06.931Z,74882.34
2023-02-08T00:02:39.203Z,74882.34
2023-02-08T00:03:14.082Z,74886.34
2023-02-08T00:03:46.363Z,74886.34
2023-02-08T00:04:19.125Z,74880.34
2023-02-08T00:04:54.118Z,74878.34
2023-02-08T00:05:26.342Z,74882.34
2023-02-08T00:05:58.568Z,74882.34
2023-02-08T00:06:33.444Z,74878.34
2023-02-08T00:07:05.672Z,74874.34
2023-02-08T00:07:37.916Z,74878.34
2023-02-08T00:08:12.809Z,74878.34
2023-02-08T00:08:45.456Z,74874.34
2023-02-08T00:09:17.718Z,74872.34
2023-02-08T00:09:52.550Z,74866.38
2023-02-08T00:10:24.851Z,74872.34
2023-02-08T00:10:57.124Z,74874.34
2023-02-08T00:11:31.963Z,74870.38
2023-02-08T00:12:04.648Z,74870.38
2023-02-08T00:12:39.501Z,74866.38
2023-02-08T00:13:14.364Z,74868.38
2023-02-08T00:13:46.972Z,74862.38
2023-02-08T00:14:21.806Z,74862.38
2023-02-08T00:14:54.049Z,74870.38
2023-02-08T00:15:26.284Z,74870.38
2023-02-08T00:16:01.372Z,74866.38
2023-02-08T00:16:33.767Z,74868.38
2023-02-08T00:17:06.111Z,74862.38
2023-02-08T00:17:40.935Z,74862.38
2023-02-08T00:18:14.832Z,74858.38
2023-02-08T00:18:49.719Z,74856.38
2023-02-08T00:19:21.976Z,74862.38
2023-02-08T00:19:54.221Z,74862.38
2023-02-08T00:20:29.060Z,74858.38
2023-02-08T00:21:01.396Z,74858.38
2023-02-08T00:21:33.629Z,74862.38
2023-02-08T00:22:08.448Z,74854.38
2023-02-08T00:22:40.683Z,74858.38
2023-02-08T00:23:13.703Z,74852.38
2023-02-08T00:23:46.703Z,74856.38
2023-02-08T00:24:21.529Z,74858.38
2023-02-08T00:24:53.768Z,74858.38
2023-02-08T00:25:26.064Z,74858.38
2023-02-08T00:26:00.870Z,74858.38
2023-02-08T00:26:33.133Z,74858.38
2023-02-08T00:27:05.395Z,74856.38
2023-02-08T00:27:42.819Z,74852.38
2023-02-08T00:28:16.744Z,74850.38
2023-02-08T00:28:48.997Z,74846.41
2023-02-08T00:29:25.799Z,74854.38
2023-02-08T00:29:58.057Z,74850.38
2023-02-08T00:30:30.297Z,74858.38
2023-02-08T00:31:05.568Z,74858.38
2023-02-08T00:31:37.976Z,74862.38
2023-02-08T00:32:10.744Z,74858.38
2023-02-08T00:32:45.567Z,74852.38
2023-02-08T00:33:17.798Z,74860.38
2023-02-08T00:33:50.107Z,74856.38
2023-02-08T00:34:24.944Z,74866.38
2023-02-08T00:34:57.198Z,74858.38
2023-02-08T00:35:29.808Z,74866.38
2023-02-08T00:36:05.914Z,74860.38
2023-02-08T00:36:38.214Z,74858.38
2023-02-08T00:37:10.953Z,74856.38
2023-02-08T00:37:45.817Z,74856.38
2023-02-08T00:38:18.067Z,74860.38
2023-02-08T00:38:51.479Z,74862.38
2023-02-08T00:39:24.664Z,74860.38
2023-02-08T00:40:02.667Z,74852.38
2023-02-08T00:40:34.923Z,74858.38
2023-02-08T00:41:07.207Z,74852.38
2023-02-08T00:41:42.071Z,74858.38
2023-02-08T00:42:14.348Z,74860.38
2023-02-08T00:42:49.184Z,74858.38
2023-02-08T00:43:24.040Z,74858.38
2023-02-08T00:43:56.339Z,74852.38
2023-02-08T00:44:31.205Z,74858.38
2023-02-08T00:45:03.623Z,74854.38
2023-02-08T00:45:36.231Z,74860.38
2023-02-08T00:46:11.083Z,74858.38
2023-02-08T00:46:43.398Z,74862.38
2023-02-08T00:47:16.275Z,74860.38
2023-02-08T00:47:51.124Z,74866.38
2023-02-08T00:48:23.668Z,74862.38
2023-02-08T00:48:55.901Z,74862.38
2023-02-08T00:49:30.782Z,74862.38
2023-02-08T00:50:03.064Z,74862.38
2023-02-08T00:50:35.378Z,74858.38
2023-02-08T00:51:13.663Z,74862.38
2023-02-08T00:51:45.948Z,74866.38
2023-02-08T00:52:18.655Z,74864.38
2023-02-08T00:52:53.547Z,74868.38
2023-02-08T00:53:25.842Z,74866.38
2023-02-08T00:53:58.252Z,74860.38
2023-02-08T00:54:33.371Z,74862.38
2023-02-08T00:55:06.368Z,74874.34
2023-02-08T00:55:38.735Z,74870.38
2023-02-08T00:56:15.008Z,74866.38
2023-02-08T00:56:47.524Z,74870.38
2023-02-08T00:57:19.760Z,74874.34
2023-02-08T00:57:57.195Z,74874.34
2023-02-08T00:58:29.444Z,74872.34
2023-02-08T00:59:01.687Z,74878.34
2023-02-08T00:59:33.917Z,74872.34
2023-02-08T01:00:10.466Z,74876.34
2023-02-08T01:00:43.150Z,74870.38
2023-02-08T01:01:15.459Z,74876.34
2023-02-08T01:01:50.364Z,74870.38
2023-02-08T01:02:22.622Z,74878.34
2023-02-08T01:02:54.884Z,74874.34
2023-02-08T01:03:30.092Z,74880.34
2023-02-08T01:04:02.378Z,74874.34
2023-02-08T01:04:34.603Z,74882.34
2023-02-08T01:05:09.909Z,74880.34
2023-02-08T01:05:42.135Z,74880.34
2023-02-08T01:06:16.638Z,74876.34
2023-02-08T01:06:53.020Z,74878.34
2023-02-08T01:07:25.374Z,74878.34
2023-02-08T01:07:58.200Z,74878.34
2023-02-08T01:08:33.092Z,74880.34
2023-02-08T01:09:06.323Z,74878.34
2023-02-08T01:09:38.833Z,74878.34
2023-02-08T01:10:14.196Z,74878.34
2023-02-08T01:10:46.493Z,74880.34
2023-02-08T01:11:21.890Z,74886.34
2023-02-08T01:11:56.808Z,74890.34
2023-02-08T01:12:29.092Z,74888.34
2023-02-08T01:13:03.932Z,74890.34
2023-02-08T01:13:39.787Z,74886.34
2023-02-08T01:14:14.144Z,74886.34
2023-02-08T01:14:46.553Z,74880.34
2023-02-08T01:15:21.444Z,74886.34
2023-02-08T01:15:53.715Z,74890.34
2023-02-08T01:16:28.174Z,74888.34
2023-02-08T01:17:03.280Z,74884.34
2023-02-08T01:17:35.754Z,74892.31
2023-02-08T01:18:07.990Z,74886.34
2023-02-08T01:18:44.168Z,74886.34
2023-02-08T01:19:17.387Z,74888.34
2023-02-08T01:19:49.633Z,74890.34
2023-02-08T01:20:27.085Z,74886.34
2023-02-08T01:21:04.668Z,74890.34
2023-02-08T01:21:39.587Z,74886.34
2023-02-08T01:22:14.425Z,74888.34
2023-02-08T01:22:46.678Z,74890.34
2023-02-08T01:23:19.072Z,74886.34
2023-02-08T01:23:54.333Z,74888.34
2023-02-08T01:24:26.608Z,74888.34
2023-02-08T01:24:58.852Z,74886.34
2023-02-08T01:25:34.302Z,74888.34
2023-02-08T01:26:07.946Z,74892.31
2023-02-08T01:26:40.183Z,74890.34
2023-02-08T01:27:15.018Z,74886.34
2023-02-08T01:27:47.335Z,74886.34
2023-02-08T01:28:22.290Z,74892.31
2023-02-08T01:28:58.143Z,74884.34
2023-02-08T01:29:30.449Z,74890.34
2023-02-08T01:30:02.737Z,74890.34
2023-02-08T01:30:37.667Z,74892.31
2023-02-08T01:31:12.123Z,74886.34
2023-02-08T01:31:49.397Z,74890.34
2023-02-08T01:32:21.635Z,74894.31
2023-02-08T01:32:53.867Z,74894.31
2023-02-08T01:33:28.798Z,74890.34
2023-02-08T01:34:01.752Z,74898.31
2023-02-08T01:34:34.044Z,74894.31
2023-02-08T01:35:09.592Z,74894.31
2023-02-08T01:35:43.144Z,74898.31
2023-02-08T01:36:16.532Z,74892.31
2023-02-08T01:36:51.409Z,74894.31
2023-02-08T01:37:23.663Z,74886.34
2023-02-08T01:37:55.914Z,74888.34
2023-02-08T01:38:28.203Z,74894.31
2023-02-08T01:39:03.155Z,74890.34
2023-02-08T01:39:35.617Z,74892.31
2023-02-08T01:40:09.221Z,74892.31
2023-02-08T01:40:44.193Z,74892.31
2023-02-08T01:41:18.402Z,74894.31
2023-02-08T01:41:53.226Z,74886.34
2023-02-08T01:42:26.578Z,74890.34
2023-02-08T01:42:58.831Z,74890.34
2023-02-08T01:43:37.740Z,74892.31
2023-02-08T01:44:40.460Z,74890.34
2023-02-08T01:45:30.830Z,74894.31
2023-02-08T01:46:03.163Z,74894.31
2023-02-08T01:46:37.302Z,74894.31
2023-02-08T01:47:12.600Z,74894.31
2023-02-08T01:47:45.816Z,74898.31
2023-02-08T01:48:22.784Z,74890.34
2023-02-08T01:48:55.755Z,74890.34
2023-02-08T01:49:30.164Z,74886.34
2023-02-08T01:50:02.463Z,74882.34
2023-02-08T01:50:42.413Z,74890.34
2023-02-08T01:51:16.873Z,74890.34
2023-02-08T01:51:55.512Z,74890.34
2023-02-08T01:52:28.880Z,74886.34
2023-02-08T01:53:02.604Z,74894.31
2023-02-08T01:53:38.350Z,74888.34
2023-02-08T01:54:11.781Z,74886.34
2023-02-08T01:54:48.965Z,74890.34
2023-02-08T01:55:29.344Z,74896.31
2023-02-08T01:56:03.118Z,74898.31
2023-02-08T01:56:38.157Z,74890.34
2023-02-08T01:57:13.153Z,74894.31
2023-02-08T01:57:45.689Z,74894.31
2023-02-08T01:58:21.476Z,74898.31
2023-02-08T01:58:58.208Z,74894.31
2023-02-08T01:59:35.907Z,74890.34
2023-02-08T02:00:13.118Z,74894.31
2023-02-08T02:00:48.557Z,74898.31
2023-02-08T02:01:21.271Z,74894.31
2023-02-08T02:01:57.585Z,74904.31
2023-02-08T02:02:30.104Z,74896.31
2023-02-08T02:03:02.815Z,74890.34
2023-02-08T02:03:37.743Z,74890.34
2023-02-08T02:04:10.022Z,74892.31
2023-02-08T02:04:42.383Z,74898.31
2023-02-08T02:05:15.131Z,74892.31
2023-02-08T02:05:51.694Z,74900.31
2023-02-08T02:06:26.792Z,74894.31
2023-02-08T02:07:00.112Z,74894.31
2023-02-08T02:07:32.679Z,74896.31
2023-02-08T02:08:08.120Z,74894.31
2023-02-08T02:08:56.514Z,74894.31
2023-02-08T02:09:34.871Z,74894.31
2023-02-08T02:10:10.592Z,74898.31
2023-02-08T02:10:44.060Z,74898.31
2023-02-08T02:11:18.988Z,74892.31
2023-02-08T02:11:52.443Z,74894.31
2023-02-08T02:12:25.028Z,74894.31
2023-02-08T02:13:06.260Z,74894.31
2023-02-08T02:13:38.604Z,74890.34
2023-02-08T02:14:13.606Z,74890.34
2023-02-08T02:14:48.805Z,74894.31
2023-02-08T02:15:21.311Z,74902.31
2023-02-08T02:15:54.413Z,74886.34
2023-02-08T02:16:29.295Z,74888.34
2023-02-08T02:17:02.504Z,74882.34
2023-02-08T02:17:35.360Z,74884.34
2023-02-08T02:18:10.876Z,74882.34
2023-02-08T02:18:43.456Z,74890.34
2023-02-08T02:19:23.893Z,74888.34
2023-02-08T02:20:04.497Z,74888.34
2023-02-08T02:20:56.551Z,74886.34
2023-02-08T02:21:39.201Z,74888.34
2023-02-08T02:22:29.335Z,74882.34
2023-02-08T02:23:37.107Z,74882.34
2023-02-08T02:24:46.314Z,74886.34
2023-02-08T02:25:44.927Z,74880.34
2023-02-08T02:26:31.852Z,74878.34
2023-02-08T02:27:17.620Z,74882.34
2023-02-08T02:28:17.880Z,74880.34
2023-02-08T02:29:08.882Z,74882.34
2023-02-08T02:30:25.904Z,74876.34
2023-02-08T02:31:28.265Z,74878.34
2023-02-08T02:32:15.610Z,74876.34
2023-02-08T02:32:58.624Z,74870.38
2023-02-08T02:33:40.068Z,74876.34
2023-02-08T02:34:18.433Z,74878.34
2023-02-08T02:34:53.530Z,74876.34
2023-02-08T02:35:30.048Z,74870.38
2023-02-08T02:36:09.978Z,74874.34
2023-02-08T02:36:46.860Z,74874.34
2023-02-08T02:37:31.141Z,74872.34
2023-02-08T02:38:13.033Z,74870.38
2023-02-08T02:38:52.573Z,74872.34
2023-02-08T02:39:30.442Z,74868.38
2023-02-08T02:40:12.213Z,74882.34
2023-02-08T02:40:50.791Z,74870.38
2023-02-08T02:41:43.500Z,74878.34
2023-02-08T02:42:39.689Z,74882.34
2023-02-08T02:43:30.500Z,74882.34
2023-02-08T02:44:04.419Z,74882.34
2023-02-08T02:44:41.427Z,74882.34
2023-02-08T02:45:18.777Z,74880.34
2023-02-08T02:45:59.584Z,74878.34
2023-02-08T02:46:40.894Z,74886.34
2023-02-08T02:47:18.250Z,74880.34
2023-02-08T02:47:58.020Z,74882.34
2023-02-08T02:48:34.339Z,74878.34
2023-02-08T02:49:09.831Z,74882.34
2023-02-08T02:49:51.693Z,74878.34
2023-02-08T02:50:27.308Z,74878.34
2023-02-08T02:51:01.030Z,74878.34
2023-02-08T02:51:39.936Z,74886.34
2023-02-08T02:52:13.405Z,74882.34
2023-02-08T02:52:49.108Z,74880.34
2023-02-08T02:53:27.462Z,74886.34
2023-02-08T02:54:02.256Z,74882.34
2023-02-08T02:54:38.856Z,74882.34
2023-02-08T02:55:16.552Z,74886.34
2023-02-08T02:55:52.615Z,74882.34
2023-02-08T02:56:27.907Z,74878.34
2023-02-08T02:57:05.825Z,74888.34
2023-02-08T02:57:38.446Z,74882.34
2023-02-08T02:58:12.533Z,74882.34
2023-02-08T02:58:48.245Z,74882.34
2023-02-08T02:59:20.615Z,74886.34
2023-02-08T02:59:52.936Z,74890.34
2023-02-08T03:00:29.461Z,74886.34
2023-02-08T03:01:02.145Z,74886.34
2023-02-08T03:01:37.086Z,74882.34
2023-02-08T03:02:12.978Z,74888.34
2023-02-08T03:02:45.313Z,74888.34
2023-02-08T03:03:21.567Z,74890.34
2023-02-08T03:03:56.558Z,74890.34
2023-02-08T03:04:54.449Z,74890.34
2023-02-08T03:05:30.121Z,74890.34
2023-02-08T03:06:05.672Z,74890.34
2023-02-08T03:06:51.640Z,74890.34
2023-02-08T03:07:50.968Z,74890.34
2023-02-08T03:08:59.174Z,74890.34
2023-02-08T03:09:43.040Z,74882.34
2023-02-08T03:10:40.245Z,74882.34
2023-02-08T03:11:21.792Z,74886.34
2023-02-08T03:11:58.162Z,74882.34
2023-02-08T03:12:36.736Z,74896.31
2023-02-08T03:13:23.099Z,74890.34
2023-02-08T03:14:33.116Z,74882.34
2023-02-08T03:15:33.347Z,74890.34
2023-02-08T03:16:32.980Z,74892.31
2023-02-08T03:17:37.875Z,74886.34
2023-02-08T03:18:36.017Z,74882.34
2023-02-08T03:19:34.994Z,74886.34
2023-02-08T03:20:30.793Z,74878.34
2023-02-08T03:21:34.104Z,74890.34
2023-02-08T03:22:32.544Z,74886.34
2023-02-08T03:23:31.666Z,74886.34
2023-02-08T03:24:29.551Z,74886.34
2023-02-08T03:25:27.239Z,74890.34
2023-02-08T03:26:17.035Z,74890.34
2023-02-08T03:26:54.210Z,74884.34
2023-02-08T03:27:34.384Z,74890.34
2023-02-08T03:28:10.460Z,74890.34
2023-02-08T03:28:48.876Z,74894.31
2023-02-08T03:29:30.296Z,74886.34
2023-02-08T03:30:05.368Z,74888.34
2023-02-08T03:30:46.479Z,74890.34
2023-02-08T03:31:26.578Z,74886.34
2023-02-08T03:32:00.641Z,74890.34
2023-02-08T03:32:41.964Z,74882.34
2023-02-08T03:33:17.586Z,74890.34
2023-02-08T03:33:53.555Z,74890.34
2023-02-08T03:34:33.647Z,74890.34
2023-02-08T03:35:10.633Z,74886.34
2023-02-08T03:35:47.882Z,74892.31
2023-02-08T03:36:24.186Z,74886.34
2023-02-08T03:36:58.937Z,74894.31
2023-02-08T03:37:36.206Z,74890.34
2023-02-08T03:38:10.633Z,74882.34
2023-02-08T03:38:44.507Z,74886.34
2023-02-08T03:39:23.119Z,74890.34
2023-02-08T03:39:59.384Z,74882.34
2023-02-08T03:40:35.744Z,74882.34
2023-02-08T03:41:13.183Z,74882.34
2023-02-08T03:41:46.994Z,74894.31
2023-02-08T03:42:22.296Z,74886.34
2023-02-08T03:43:00.913Z,74888.34
2023-02-08T03:43:36.033Z,74890.34
2023-02-08T03:44:12.356Z,74886.34
2023-02-08T03:44:51.217Z,74880.34
2023-02-08T03:45:31.355Z,74878.34
2023-02-08T03:46:08.147Z,74880.34
2023-02-08T03:46:46.850Z,74886.34
2023-02-08T03:47:23.178Z,74882.34
2023-02-08T03:48:00.788Z,74878.34
2023-02-08T03:48:37.684Z,74884.34
2023-02-08T03:49:14.044Z,74888.34
2023-02-08T03:49:50.021Z,74882.34
2023-02-08T03:50:25.627Z,74882.34
2023-02-08T03:50:59.194Z,74876.34
2023-02-08T03:51:33.525Z,74878.34
2023-02-08T03:52:11.705Z,74880.34
2023-02-08T03:52:45.564Z,74884.34
2023-02-08T03:53:20.553Z,74882.34
2023-02-08T03:53:55.885Z,74884.34
2023-02-08T03:54:30.757Z,74880.34
2023-02-08T03:55:05.893Z,74886.34
2023-02-08T03:55:42.030Z,74878.34
2023-02-08T03:56:17.640Z,74880.34
2023-02-08T03:56:54.539Z,74878.34
2023-02-08T03:57:31.595Z,74878.34
2023-02-08T03:58:07.019Z,74878.34
2023-02-08T03:58:42.447Z,74874.34
2023-02-08T03:59:21.856Z,74878.34
2023-02-08T03:59:58.025Z,74876.34
2023-02-08T04:00:32.385Z,74878.34
2023-02-08T04:01:09.374Z,74886.34
2023-02-08T04:01:44.691Z,74884.34
2023-02-08T04:02:20.643Z,74886.34
2023-02-08T04:03:02.924Z,74882.34
2023-02-08T04:03:35.842Z,74878.34
2023-02-08T04:04:08.435Z,74878.34
2023-02-08T04:04:45.305Z,74878.34
2023-02-08T04:05:17.592Z,74880.34
2023-02-08T04:05:50.036Z,74882.34
2023-02-08T04:06:25.349Z,74878.34
2023-02-08T04:06:57.617Z,74882.34
2023-02-08T04:07:29.837Z,74882.34
2023-02-08T04:08:04.915Z,74880.34
2023-02-08T04:08:37.228Z,74880.34
2023-02-08T04:09:09.467Z,74882.34
2023-02-08T04:09:44.447Z,74886.34
2023-02-08T04:10:16.924Z,74890.34
2023-02-08T04:10:49.654Z,74886.34
2023-02-08T04:11:24.780Z,74882.34
2023-02-08T04:11:57.083Z,74888.34
2023-02-08T04:12:29.349Z,74890.34
2023-02-08T04:13:04.590Z,74888.34
2023-02-08T04:13:36.871Z,74878.34
2023-02-08T04:14:09.112Z,74882.34
2023-02-08T04:14:43.935Z,74882.34
2023-02-08T04:15:17.277Z,74886.34
2023-02-08T04:15:49.526Z,74884.34
2023-02-08T04:16:24.457Z,74878.34
2023-02-08T04:16:56.913Z,74882.34
2023-02-08T04:17:29.187Z,74882.34
2023-02-08T04:18:06.857Z,74892.31
2023-02-08T04:18:39.184Z,74890.34
2023-02-08T04:19:11.616Z,74882.34
2023-02-08T04:19:43.857Z,74880.34
2023-02-08T04:20:18.898Z,74884.34
2023-02-08T04:20:51.144Z,74888.34
2023-02-08T04:21:23.399Z,74886.34
2023-02-08T04:21:58.223Z,74882.34
2023-02-08T04:22:30.444Z,74882.34
2023-02-08T04:23:02.664Z,74880.34
2023-02-08T04:23:37.519Z,74876.34
2023-02-08T04:24:09.812Z,74878.34
2023-02-08T04:24:42.123Z,74878.34
2023-02-08T04:25:16.981Z,74876.34
2023-02-08T04:25:49.278Z,74882.34
2023-02-08T04:26:21.515Z,74880.34
2023-02-08T04:26:56.357Z,74874.34
2023-02-08T04:27:28.580Z,74874.34
2023-02-08T04:28:00.884Z,74874.34
2023-02-08T04:28:35.756Z,74884.34
2023-02-08T04:29:07.983Z,74870.38
2023-02-08T04:29:42.849Z,74876.34
2023-02-08T04:30:15.101Z,74876.34
2023-02-08T04:30:47.653Z,74874.34
2023-02-08T04:31:22.617Z,74870.38
2023-02-08T04:31:54.957Z,74874.34
2023-02-08T04:32:27.229Z,74874.34
2023-02-08T04:33:02.629Z,74878.34
2023-02-08T04:33:37.475Z,74874.34
2023-02-08T04:34:09.710Z,74874.34
2023-02-08T04:34:41.928Z,74878.34
2023-02-08T04:35:16.800Z,74878.34
2023-02-08T04:35:49.064Z,74874.34
2023-02-08T04:36:23.976Z,74870.38
2023-02-08T04:36:56.205Z,74878.34
2023-02-08T04:37:31.032Z,74870.38
2023-02-08T04:38:03.305Z,74870.38
2023-02-08T04:38:35.725Z,74866.38
2023-02-08T04:39:10.567Z,74870.38
2023-02-08T04:39:42.871Z,74866.38
2023-02-08T04:40:15.140Z,74866.38
2023-02-08T04:40:49.991Z,74866.38
2023-02-08T04:41:22.239Z,74870.38
2023-02-08T04:41:54.457Z,74868.38
2023-02-08T04:42:29.391Z,74866.38
2023-02-08T04:43:02.488Z,74866.38
2023-02-08T04:43:34.772Z,74866.38
2023-02-08T04:44:09.588Z,74866.38
2023-02-08T04:44:41.825Z,74868.38
2023-02-08T04:45:14.164Z,74866.38
2023-02-08T04:45:49.044Z,74870.38
2023-02-08T04:46:21.314Z,74874.34
2023-02-08T04:46:53.629Z,74870.38
2023-02-08T04:47:28.440Z,74868.38
2023-02-08T04:48:01.751Z,74866.38
2023-02-08T04:48:36.602Z,74874.34
2023-02-08T04:49:11.418Z,74874.34
2023-02-08T04:49:43.644Z,74870.38
2023-02-08T04:50:18.720Z,74868.38
2023-02-08T04:50:51.038Z,74872.34
2023-02-08T04:51:23.283Z,74866.38
2023-02-08T04:51:58.128Z,74870.38
2023-02-08T04:52:30.459Z,74870.38
2023-02-08T04:53:02.794Z,74874.34
2023-02-08T04:53:37.720Z,74866.38
2023-02-08T04:54:09.976Z,74870.38
2023-02-08T04:54:42.197Z,74874.34
2023-02-08T04:55:17.115Z,74870.38
2023-02-08T04:55:49.413Z,74866.38
2023-02-08T04:56:21.686Z,74870.38
2023-02-08T04:56:56.610Z,74872.34
2023-02-08T04:57:28.944Z,74870.38
2023-02-08T04:58:01.223Z,74866.38
2023-02-08T04:58:36.048Z,74876.34
2023-02-08T04:59:08.376Z,74872.34
2023-02-08T04:59:40.644Z,74870.38
2023-02-08T05:00:16.737Z,74860.38
2023-02-08T05:00:49.181Z,74858.38
2023-02-08T05:01:21.631Z,74862.38
2023-02-08T05:01:56.606Z,74862.38
2023-02-08T05:02:28.877Z,74866.38
2023-02-08T05:03:01.162Z,74862.38
2023-02-08T05:03:36.031Z,74858.38
2023-02-08T05:04:10.887Z,74854.38
2023-02-08T05:04:45.733Z,74856.38
2023-02-08T05:05:18.225Z,74856.38
2023-02-08T05:06:00.449Z,74852.38
2023-02-08T05:06:32.746Z,74850.38
2023-02-08T05:07:07.999Z,74850.38
2023-02-08T05:07:40.219Z,74846.41
2023-02-08T05:08:12.443Z,74850.38
2023-02-08T05:08:44.701Z,74846.41
2023-02-08T05:09:19.544Z,74850.38
2023-02-08T05:09:51.764Z,74846.41
2023-02-08T05:10:24.001Z,74846.41
2023-02-08T05:10:58.839Z,74850.38
2023-02-08T05:11:31.088Z,74846.41
2023-02-08T05:12:06.061Z,74850.38
2023-02-08T05:12:38.484Z,74846.41
2023-02-08T05:13:10.721Z,74854.38
2023-02-08T05:13:45.528Z,74852.38
2023-02-08T05:14:17.743Z,74858.38
2023-02-08T05:14:49.962Z,74858.38
2023-02-08T05:15:24.897Z,74854.38
2023-02-08T05:15:57.179Z,74854.38
2023-02-08T05:16:29.585Z,74858.38
2023-02-08T05:17:04.404Z,74862.38
2023-02-08T05:17:37.147Z,74862.38
2023-02-08T05:18:09.403Z,74858.38
2023-02-08T05:18:44.240Z,74858.38
2023-02-08T05:19:19.147Z,74862.38
2023-02-08T05:19:51.402Z,74858.38
2023-02-08T05:20:26.272Z,74858.38
2023-02-08T05:20:59.712Z,74858.38
2023-02-08T05:21:34.572Z,74858.38
2023-02-08T05:22:06.808Z,74858.38
2023-02-08T05:22:41.764Z,74862.38
2023-02-08T05:23:14.001Z,74864.38
2023-02-08T05:23:46.912Z,74858.38
2023-02-08T05:24:21.815Z,74858.38
2023-02-08T05:24:54.116Z,74852.38
2023-02-08T05:25:26.369Z,74864.38
2023-02-08T05:26:01.700Z,74852.38
2023-02-08T05:26:33.941Z,74868.38
2023-02-08T05:27:06.170Z,74862.38
2023-02-08T05:27:41.044Z,74874.34
2023-02-08T05:28:13.348Z,74866.38
2023-02-08T05:28:48.204Z,74862.38
2023-02-08T05:29:20.421Z,74866.38
2023-02-08T05:29:52.683Z,74874.34
2023-02-08T05:30:27.518Z,74864.38
2023-02-08T05:30:59.872Z,74866.38
2023-02-08T05:31:32.248Z,74860.38
2023-02-08T05:32:07.365Z,74862.38
2023-02-08T05:32:40.091Z,74862.38
2023-02-08T05:33:12.342Z,74862.38
2023-02-08T05:33:47.163Z,74858.38
2023-02-08T05:34:22.075Z,74864.38
2023-02-08T05:34:56.924Z,74866.38
2023-02-08T05:35:29.160Z,74866.38
2023-02-08T05:36:02.415Z,74870.38
2023-02-08T05:36:38.038Z,74866.38
2023-02-08T05:37:10.307Z,74870.38
2023-02-08T05:37:42.568Z,74862.38
2023-02-08T05:38:17.406Z,74866.38
2023-02-08T05:38:49.846Z,74870.38
2023-02-08T05:39:22.052Z,74862.38
2023-02-08T05:39:56.878Z,74870.38
2023-02-08T05:40:29.686Z,74868.38
2023-02-08T05:41:01.947Z,74866.38
2023-02-08T05:41:36.860Z,74868.38
2023-02-08T05:42:09.134Z,74870.38
2023-02-08T05:42:42.566Z,74872.34
2023-02-08T05:43:17.414Z,74870.38
2023-02-08T05:43:49.650Z,74868.38
2023-02-08T05:44:21.934Z,74870.38
2023-02-08T05:44:56.961Z,74874.34
2023-02-08T05:45:29.342Z,74878.34
2023-02-08T05:46:01.603Z,74878.34
2023-02-08T05:46:38.173Z,74876.34
2023-02-08T05:47:10.702Z,74878.34
2023-02-08T05:47:42.979Z,74882.34
2023-02-08T05:48:17.792Z,74878.34
2023-02-08T05:48:50.038Z,74874.34
2023-02-08T05:49:25.004Z,74874.34
2023-02-08T05:49:59.863Z,74876.34
2023-02-08T05:50:32.302Z,74874.34
2023-02-08T05:51:04.707Z,74876.34
2023-02-08T05:51:39.563Z,74874.34
2023-02-08T05:52:11.794Z,74872.34
2023-02-08T05:52:44.022Z,74880.34
2023-02-08T05:53:18.856Z,74870.38
2023-02-08T05:53:51.067Z,74874.34
2023-02-08T05:54:25.899Z,74880.34
2023-02-08T05:54:58.160Z,74878.34
2023-02-08T05:55:30.408Z,74882.34
2023-02-08T05:56:05.241Z,74884.34
2023-02-08T05:56:37.489Z,74874.34
2023-02-08T05:57:09.796Z,74886.34
2023-02-08T05:57:44.616Z,74886.34
2023-02-08T05:58:17.503Z,74882.34
2023-02-08T05:58:49.728Z,74880.34
2023-02-08T05:59:24.569Z,74886.34
2023-02-08T05:59:56.801Z,74886.34
2023-02-08T06:00:31.637Z,74878.34
2023-02-08T06:01:08.831Z,74882.34
2023-02-08T06:01:41.082Z,74884.34
2023-02-08T06:02:17.139Z,74878.34
2023-02-08T06:02:49.524Z,74882.34
2023-02-08T06:03:21.866Z,74886.34
2023-02-08T06:03:56.973Z,74878.34
2023-02-08T06:04:31.834Z,74878.34
2023-02-08T06:05:06.726Z,74872.34
2023-02-08T06:05:40.147Z,74878.34
2023-02-08T06:06:12.405Z,74874.34
2023-02-08T06:06:47.357Z,74878.34
2023-02-08T06:07:19.607Z,74880.34
2023-02-08T06:07:51.835Z,74878.34
2023-02-08T06:08:26.639Z,74884.34
2023-02-08T06:08:58.843Z,74874.34
2023-02-08T06:09:34.058Z,74884.34
2023-02-08T06:10:07.223Z,74880.34
2023-02-08T06:10:39.895Z,74878.34
2023-02-08T06:11:14.902Z,74878.34
2023-02-08T06:11:47.499Z,74876.34
2023-02-08T06:12:19.700Z,74878.34
2023-02-08T06:12:54.565Z,74876.34
2023-02-08T06:13:26.818Z,74880.34
2023-02-08T06:13:59.061Z,74872.34
2023-02-08T06:14:34.019Z,74878.34
2023-02-08T06:15:06.818Z,74870.38
2023-02-08T06:15:39.058Z,74870.38
2023-02-08T06:16:13.885Z,74878.34
2023-02-08T06:16:46.256Z,74876.34
2023-02-08T06:17:21.105Z,74874.34
2023-02-08T06:17:53.644Z,74878.34
2023-02-08T06:18:28.500Z,74874.34
2023-02-08T06:19:00.729Z,74874.34
2023-02-08T06:19:35.584Z,74870.38
2023-02-08T06:20:11.306Z,74872.34
2023-02-08T06:20:43.637Z,74874.34
2023-02-08T06:21:23.436Z,74866.38
2023-02-08T06:21:56.584Z,74870.38
2023-02-08T06:22:28.819Z,74870.38
2023-02-08T06:23:03.657Z,74870.38
2023-02-08T06:23:35.943Z,74874.34
2023-02-08T06:24:08.427Z,74876.34
2023-02-08T06:24:43.266Z,74870.38
2023-02-08T06:25:15.680Z,74870.38
2023-02-08T06:25:50.524Z,74872.34
2023-02-08T06:26:22.787Z,74874.34
2023-02-08T06:26:57.607Z,74870.38
2023-02-08T06:27:29.847Z,74864.38
2023-02-08T06:28:03.220Z,74858.38
2023-02-08T06:28:38.092Z,74858.38
2023-02-08T06:29:10.824Z,74858.38
2023-02-08T06:29:43.068Z,74862.38
2023-02-08T06:30:17.894Z,74858.38
2023-02-08T06:30:50.259Z,74850.38
2023-02-08T06:31:22.502Z,74858.38
2023-02-08T06:31:57.426Z,74850.38
2023-02-08T06:32:29.827Z,74850.38
2023-02-08T06:33:02.070Z,74852.38
2023-02-08T06:33:36.880Z,74848.41
2023-02-08T06:34:09.130Z,74850.38
2023-02-08T06:34:44.055Z,74846.41
2023-02-08T06:35:18.943Z,74844.41
2023-02-08T06:35:52.294Z,74850.38
2023-02-08T06:36:24.521Z,74838.41
2023-02-08T06:37:00.244Z,74846.41
2023-02-08T06:37:32.494Z,74850.38
2023-02-08T06:38:04.754Z,74846.41
2023-02-08T06:38:39.567Z,74844.41
2023-02-08T06:39:11.964Z,74842.41
2023-02-08T06:39:44.258Z,74844.41
2023-02-08T06:40:19.256Z,74842.41
2023-02-08T06:40:51.592Z,74846.41
2023-02-08T06:41:23.841Z,74834.41
2023-02-08T06:41:58.750Z,74838.41
2023-02-08T06:42:31.033Z,74838.41
2023-02-08T06:43:05.985Z,74838.41
2023-02-08T06:43:38.951Z,74838.41
2023-02-08T06:44:13.766Z,74832.41
2023-02-08T06:44:54.729Z,74834.41
2023-02-08T06:45:30.416Z,74834.41
2023-02-08T06:46:05.004Z,74834.41
2023-02-08T06:46:37.312Z,74838.41
2023-02-08T06:47:13.446Z,74836.41
2023-02-08T06:47:45.689Z,74838.41
2023-02-08T06:48:17.982Z,74842.41
2023-02-08T06:48:52.808Z,74844.41
2023-02-08T06:49:25.051Z,74838.41
2023-02-08T06:50:02.482Z,74838.41
2023-02-08T06:50:34.787Z,74832.41
2023-02-08T06:51:07.024Z,74836.41
2023-02-08T06:51:41.944Z,74838.41
2023-02-08T06:52:14.211Z,74834.41
2023-02-08T06:52:49.078Z,74834.41
2023-02-08T06:53:21.535Z,74834.41
2023-02-08T06:53:56.356Z,74834.41
2023-02-08T06:54:28.576Z,74834.41
2023-02-08T06:55:00.819Z,74834.41
2023-02-08T06:55:35.652Z,74834.41
2023-02-08T06:56:08.247Z,74838.41
2023-02-08T06:56:40.473Z,74840.41